Time;durP1;ratioP1;P1;durP2;ratioP2;P2;SDS_P1;SDS_P2;PMS_P1;PMS_P2;Temp;Humidity;BMP_temperature;BMP_pressure;BME280_temperature;BME280_humidity;BME280_pressure;Samples;Min_cycle;Max_cycle;Signal;HPM_P1;HPM_P2
2021/03/01 00:00:16;;;;;;;16.97;7.43;;;;;;;;;;5009883;28;20615;-90
2021/03/01 00:03:21;;;;;;;11.57;6.93;;;;;;;;;;5010411;28;20631;-90
2021/03/01 00:06:25;;;;;;;9.97;6.57;;;;;;;;;;4985906;28;21141;-91
2021/03/01 00:09:29;;;;;;;10.83;7.00;;;;;;;;;;5010007;28;20556;-90
2021/03/01 00:12:35;;;;;;;10.70;6.60;;;;;;;;;;4998908;28;20970;-91
2021/03/01 00:15:39;;;;;;;11.07;7.10;;;;;;;;;;4982362;28;20597;-90
2021/03/01 00:18:43;;;;;;;11.63;7.17;;;;;;;;;;4979491;28;20537;-90
2021/03/01 00:21:48;;;;;;;12.67;7.07;;;;;;;;;;4979427;28;21170;-89
2021/03/01 00:24:52;;;;;;;9.40;6.50;;;;;;;;;;4979923;28;20615;-89
2021/03/01 00:28:15;;;;;;;13.80;6.70;;;;;;;;;;4984702;28;20545;-89
2021/03/01 00:31:19;;;;;;;11.93;7.20;;;;;;;;;;4979150;28;20984;-89
2021/03/01 00:34:23;;;;;;;12.70;6.80;;;;;;;;;;4979091;28;20627;-88
2021/03/01 00:37:28;;;;;;;9.43;6.63;;;;;;;;;;4979543;28;20549;-89
2021/03/01 00:40:32;;;;;;;10.00;7.13;;;;;;;;;;4990292;28;20545;-89
2021/03/01 00:43:35;;;;;;;13.47;6.90;;;;;;;;;;4979077;28;20628;-89
2021/03/01 00:46:39;;;;;;;11.37;7.00;;;;;;;;;;4990499;28;21110;-89
2021/03/01 00:49:43;;;;;;;10.60;6.97;;;;;;;;;;4979341;28;20541;-89
2021/03/01 00:52:48;;;;;;;11.23;7.30;;;;;;;;;;4980875;28;20640;-89
2021/03/01 00:55:53;;;;;;;12.80;7.83;;;;;;;;;;4982527;28;20640;-89
2021/03/01 00:58:57;;;;;;;11.37;7.23;;;;;;;;;;4982631;28;20604;-89
2021/03/01 01:02:01;;;;;;;13.80;7.43;;;;;;;;;;4982538;28;20545;-89
2021/03/01 01:05:06;;;;;;;9.90;6.63;;;;;;;;;;4982491;28;20545;-89
2021/03/01 01:08:10;;;;;;;13.90;7.33;;;;;;;;;;4993688;28;20545;-89
2021/03/01 01:11:16;;;;;;;10.73;6.80;;;;;;;;;;4983032;28;20537;-88
2021/03/01 01:14:20;;;;;;;12.00;6.90;;;;;;;;;;4982147;28;20612;-89
2021/03/01 01:17:24;;;;;;;12.03;7.20;;;;;;;;;;4982727;28;20545;-89
2021/03/01 01:20:28;;;;;;;11.23;6.87;;;;;;;;;;4982430;28;20536;-88
2021/03/01 01:23:32;;;;;;;9.57;6.67;;;;;;;;;;4982470;28;20622;-89
2021/03/01 01:26:36;;;;;;;10.87;6.50;;;;;;;;;;4982403;28;20537;-89
2021/03/01 01:29:40;;;;;;;10.57;6.77;;;;;;;;;;4982087;28;20599;-89
2021/03/01 01:32:45;;;;;;;9.50;6.27;;;;;;;;;;4981641;28;20659;-89
2021/03/01 01:35:49;;;;;;;10.43;6.23;;;;;;;;;;4982031;28;20611;-89
2021/03/01 01:38:53;;;;;;;11.37;6.57;;;;;;;;;;4981983;28;20545;-89
2021/03/01 01:41:57;;;;;;;10.80;6.83;;;;;;;;;;4981918;28;20545;-89
2021/03/01 01:45:12;;;;;;;11.17;6.70;;;;;;;;;;4993949;28;20541;-89
2021/03/01 01:48:16;;;;;;;10.40;6.37;;;;;;;;;;4981710;28;20569;-89
2021/03/01 01:51:20;;;;;;;10.93;7.00;;;;;;;;;;4993131;28;20908;-89
2021/03/01 01:54:24;;;;;;;12.10;7.00;;;;;;;;;;4992423;28;20655;-91
2021/03/01 01:57:28;;;;;;;13.03;7.53;;;;;;;;;;5002330;28;20600;-90
2021/03/01 02:00:45;;;;;;;13.57;7.37;;;;;;;;;;4985966;28;20593;-91
2021/03/01 02:03:57;;;;;;;13.73;7.60;;;;;;;;;;4980874;28;20627;-90
2021/03/01 02:07:29;;;;;;;12.37;7.83;;;;;;;;;;4989582;28;20612;-90
2021/03/01 02:10:48;;;;;;;12.57;7.17;;;;;;;;;;4992920;28;20588;-91
2021/03/01 02:14:09;;;;;;;12.60;8.03;;;;;;;;;;5003677;28;20660;-90
2021/03/01 02:17:14;;;;;;;11.37;6.97;;;;;;;;;;4992320;28;20558;-91
2021/03/01 02:20:18;;;;;;;11.80;7.43;;;;;;;;;;4991981;28;20620;-89
2021/03/01 02:23:22;;;;;;;13.13;7.60;;;;;;;;;;4992084;28;20622;-90
2021/03/01 02:26:31;;;;;;;14.17;7.13;;;;;;;;;;4992182;28;20537;-88
2021/03/01 02:29:36;;;;;;;11.43;7.83;;;;;;;;;;5003327;28;20541;-88
2021/03/01 02:32:42;;;;;;;11.20;7.43;;;;;;;;;;5002835;28;21011;-89
2021/03/01 02:35:53;;;;;;;14.03;7.90;;;;;;;;;;4992003;28;20596;-89
2021/03/01 02:38:59;;;;;;;11.27;8.07;;;;;;;;;;4991637;28;20600;-89
2021/03/01 02:42:04;;;;;;;12.73;8.47;;;;;;;;;;5002947;28;20604;-89
2021/03/01 02:45:10;;;;;;;12.87;7.70;;;;;;;;;;4991218;28;20617;-91
2021/03/01 02:48:15;;;;;;;14.87;8.23;;;;;;;;;;4980662;28;20557;-91
2021/03/01 02:51:21;;;;;;;12.80;7.47;;;;;;;;;;4991367;28;20537;-90
2021/03/01 02:54:28;;;;;;;12.73;7.73;;;;;;;;;;4996118;28;20655;-91
2021/03/01 02:57:33;;;;;;;13.47;7.47;;;;;;;;;;5023026;28;20603;-90
2021/03/01 03:00:38;;;;;;;12.77;7.77;;;;;;;;;;4993544;28;21169;-91
2021/03/01 03:03:47;;;;;;;12.90;8.50;;;;;;;;;;4992957;28;20662;-90
2021/03/01 03:06:53;;;;;;;11.97;7.50;;;;;;;;;;5006947;28;20549;-90
2021/03/01 03:09:59;;;;;;;13.93;7.73;;;;;;;;;;5018459;28;20627;-91
2021/03/01 03:13:04;;;;;;;10.27;6.67;;;;;;;;;;5000917;28;20658;-90
2021/03/01 03:16:10;;;;;;;9.60;7.13;;;;;;;;;;4999610;28;20556;-90
2021/03/01 03:19:14;;;;;;;11.60;7.27;;;;;;;;;;4998827;28;20584;-90
2021/03/01 03:22:19;;;;;;;16.93;7.53;;;;;;;;;;5010838;28;20552;-90
2021/03/01 03:25:23;;;;;;;12.37;7.47;;;;;;;;;;4999600;28;20544;-90
2021/03/01 03:28:27;;;;;;;13.27;7.53;;;;;;;;;;5004002;28;20584;-89
2021/03/01 03:31:32;;;;;;;10.23;6.93;;;;;;;;;;4991116;28;20537;-91
2021/03/01 03:34:36;;;;;;;11.13;6.87;;;;;;;;;;4979388;28;20654;-90
2021/03/01 03:37:51;;;;;;;10.87;6.80;;;;;;;;;;4979783;28;20545;-90
2021/03/01 03:41:01;;;;;;;12.43;7.33;;;;;;;;;;4990831;28;20577;-90
2021/03/01 03:44:09;;;;;;;10.93;7.07;;;;;;;;;;5015553;28;20659;-89
2021/03/01 03:47:13;;;;;;;12.67;6.80;;;;;;;;;;5010486;28;20903;-89
2021/03/01 03:50:20;;;;;;;12.13;7.47;;;;;;;;;;5021349;28;20599;-89
2021/03/01 03:53:27;;;;;;;11.70;6.60;;;;;;;;;;4999434;28;20667;-89
2021/03/01 03:56:31;;;;;;;14.50;6.97;;;;;;;;;;5010944;28;20548;-89
2021/03/01 03:59:39;;;;;;;13.63;6.87;;;;;;;;;;4998958;28;20604;-89
2021/03/01 04:02:45;;;;;;;11.90;6.70;;;;;;;;;;4998986;28;20607;-89
2021/03/01 04:05:52;;;;;;;9.60;6.10;;;;;;;;;;4998950;28;20567;-89
2021/03/01 04:08:57;;;;;;;12.07;6.77;;;;;;;;;;4998736;28;20544;-89
2021/03/01 04:12:03;;;;;;;10.97;6.87;;;;;;;;;;4998719;28;20544;-89
2021/03/01 04:15:13;;;;;;;10.23;6.17;;;;;;;;;;4999415;28;20540;-89
2021/03/01 04:18:22;;;;;;;12.20;7.17;;;;;;;;;;4999353;28;20551;-89
2021/03/01 04:21:28;;;;;;;10.67;6.60;;;;;;;;;;4999417;28;21078;-89
2021/03/01 04:24:35;;;;;;;11.47;7.10;;;;;;;;;;4998694;28;20631;-89
2021/03/01 04:27:40;;;;;;;13.00;6.87;;;;;;;;;;5001404;28;20548;-89
2021/03/01 04:30:47;;;;;;;12.60;7.70;;;;;;;;;;5002793;28;20548;-89
2021/03/01 04:33:55;;;;;;;12.17;7.37;;;;;;;;;;5002511;28;20663;-89
2021/03/01 04:36:59;;;;;;;11.27;6.70;;;;;;;;;;5013882;28;20876;-89
2021/03/01 04:40:04;;;;;;;12.53;7.03;;;;;;;;;;5002877;28;21114;-89
2021/03/01 04:43:10;;;;;;;10.93;7.03;;;;;;;;;;5003342;28;20634;-89
2021/03/01 04:46:16;;;;;;;12.07;7.03;;;;;;;;;;5002367;28;20586;-89
2021/03/01 04:49:24;;;;;;;12.00;7.00;;;;;;;;;;5002502;28;20548;-89
2021/03/01 04:52:31;;;;;;;13.27;6.90;;;;;;;;;;5002493;28;20603;-89
2021/03/01 04:55:36;;;;;;;12.57;7.37;;;;;;;;;;5002455;28;20591;-89
2021/03/01 04:58:41;;;;;;;10.03;6.63;;;;;;;;;;5002233;28;20540;-89
2021/03/01 05:01:50;;;;;;;10.17;6.83;;;;;;;;;;5002321;28;20900;-89
2021/03/01 05:05:04;;;;;;;10.50;6.57;;;;;;;;;;5002432;28;20952;-89
2021/03/01 05:08:12;;;;;;;13.00;7.60;;;;;;;;;;5002407;28;20544;-89
2021/03/01 05:11:29;;;;;;;10.13;6.70;;;;;;;;;;5002083;28;20965;-89
2021/03/01 05:14:33;;;;;;;15.37;7.80;;;;;;;;;;5002317;28;20662;-89
2021/03/01 05:17:39;;;;;;;12.37;7.20;;;;;;;;;;5001829;28;20602;-88
2021/03/01 05:20:43;;;;;;;12.97;7.40;;;;;;;;;;4986123;28;20946;-88
2021/03/01 05:23:48;;;;;;;12.50;6.77;;;;;;;;;;4982348;28;20608;-88
2021/03/01 05:26:52;;;;;;;14.07;7.63;;;;;;;;;;4997006;28;20592;-89
2021/03/01 05:29:56;;;;;;;12.87;6.87;;;;;;;;;;4984896;28;20599;-87
2021/03/01 05:33:01;;;;;;;12.07;6.90;;;;;;;;;;4993283;28;20615;-88
2021/03/01 05:36:05;;;;;;;11.90;7.20;;;;;;;;;;4982114;28;21086;-88
2021/03/01 05:39:11;;;;;;;12.07;7.67;;;;;;;;;;4992672;28;20612;-88
2021/03/01 05:42:20;;;;;;;12.63;7.57;;;;;;;;;;5004020;28;20537;-88
2021/03/01 05:45:24;;;;;;;12.90;7.60;;;;;;;;;;4983757;28;20611;-88
2021/03/01 05:48:29;;;;;;;11.97;7.00;;;;;;;;;;5000855;28;20628;-89
2021/03/01 05:51:36;;;;;;;12.50;7.47;;;;;;;;;;4981582;28;20603;-89
2021/03/01 05:54:42;;;;;;;10.97;7.00;;;;;;;;;;4993895;28;20647;-89
2021/03/01 05:57:47;;;;;;;12.20;7.37;;;;;;;;;;4992574;28;20617;-88
2021/03/01 06:00:53;;;;;;;12.00;7.83;;;;;;;;;;4992258;28;20611;-88
2021/03/01 06:03:57;;;;;;;13.80;7.73;;;;;;;;;;5006907;28;20991;-88
2021/03/01 06:07:01;;;;;;;11.10;7.57;;;;;;;;;;4981517;28;20541;-89
2021/03/01 06:10:06;;;;;;;11.63;7.33;;;;;;;;;;4995681;28;20619;-88
2021/03/01 06:13:10;;;;;;;11.73;7.23;;;;;;;;;;5008298;28;20647;-89
2021/03/01 06:16:14;;;;;;;14.17;6.93;;;;;;;;;;4999613;28;21164;-89
2021/03/01 06:19:45;;;;;;;16.23;9.47;;;;;;;;;;5011798;28;20549;-87
2021/03/01 06:23:13;;;;;;;14.90;8.73;;;;;;;;;;5010919;28;20599;-88
2021/03/01 06:26:34;;;;;;;13.70;8.80;;;;;;;;;;5000312;28;20600;-88
2021/03/01 06:30:06;;;;;;;16.20;8.23;;;;;;;;;;5000034;28;21206;-89
2021/03/01 06:33:16;;;;;;;14.53;8.27;;;;;;;;;;5022642;28;20619;-90
2021/03/01 06:36:19;;;;;;;11.60;8.27;;;;;;;;;;5011503;28;20548;-90
2021/03/01 06:39:30;;;;;;;14.63;9.50;;;;;;;;;;5011629;28;20607;-89
2021/03/01 06:42:34;;;;;;;14.83;9.40;;;;;;;;;;5010446;28;20613;-89
2021/03/01 06:45:39;;;;;;;16.47;9.67;;;;;;;;;;4992002;28;20549;-90
2021/03/01 06:48:44;;;;;;;15.93;9.63;;;;;;;;;;4991786;28;20537;-90
2021/03/01 06:51:48;;;;;;;13.57;8.77;;;;;;;;;;4991462;28;20592;-89
2021/03/01 06:54:52;;;;;;;14.53;9.10;;;;;;;;;;4980356;28;20672;-89
2021/03/01 06:57:57;;;;;;;13.77;9.00;;;;;;;;;;4980805;28;20541;-89
2021/03/01 07:01:09;;;;;;;16.77;9.67;;;;;;;;;;5002569;28;20596;-90
2021/03/01 07:04:28;;;;;;;17.20;9.60;;;;;;;;;;5018163;28;20770;-90
2021/03/01 07:07:37;;;;;;;28.53;14.60;;;;;;;;;;4988494;28;20928;-90
2021/03/01 07:10:42;;;;;;;29.87;15.40;;;;;;;;;;5009241;28;20583;-90
2021/03/01 07:13:46;;;;;;;22.10;12.57;;;;;;;;;;4996592;28;20667;-89
2021/03/01 07:16:56;;;;;;;31.37;15.63;;;;;;;;;;4991125;28;20599;-89
2021/03/01 07:20:01;;;;;;;24.37;13.67;;;;;;;;;;4980283;28;20927;-89
2021/03/01 07:23:07;;;;;;;26.43;14.57;;;;;;;;;;4987123;28;20646;-89
2021/03/01 07:26:14;;;;;;;25.13;14.57;;;;;;;;;;4999512;28;20593;-90
2021/03/01 07:29:20;;;;;;;32.80;17.13;;;;;;;;;;4994914;28;20592;-89
2021/03/01 07:32:26;;;;;;;27.80;15.47;;;;;;;;;;4992212;28;20565;-90
2021/03/01 07:35:31;;;;;;;24.50;13.13;;;;;;;;;;4999324;28;20651;-89
2021/03/01 07:38:35;;;;;;;28.87;14.13;;;;;;;;;;4998804;28;20544;-90
2021/03/01 07:41:40;;;;;;;21.40;11.50;;;;;;;;;;4991184;28;21064;-89
2021/03/01 07:44:48;;;;;;;35.37;13.17;;;;;;;;;;4996372;28;20645;-89
2021/03/01 07:47:52;;;;;;;22.73;11.43;;;;;;;;;;4979784;28;21142;-90
2021/03/01 07:50:57;;;;;;;21.93;11.50;;;;;;;;;;4979985;28;20540;-88
2021/03/01 07:54:01;;;;;;;17.80;11.30;;;;;;;;;;4997239;28;20658;-89
2021/03/01 07:57:07;;;;;;;21.90;12.53;;;;;;;;;;4998836;28;20599;-87
2021/03/01 08:00:26;;;;;;;27.87;14.17;;;;;;;;;;5010160;28;20552;-87
2021/03/01 08:03:40;;;;;;;20.60;12.87;;;;;;;;;;5002077;28;20631;-88
2021/03/01 08:06:56;;;;;;;20.17;11.43;;;;;;;;;;5003306;28;20544;-88
2021/03/01 08:10:00;;;;;;;16.67;10.63;;;;;;;;;;5006509;28;20600;-88
2021/03/01 08:13:06;;;;;;;12.33;9.20;;;;;;;;;;5013649;28;20655;-88
2021/03/01 08:16:19;;;;;;;12.77;8.33;;;;;;;;;;5025580;28;20532;-87
2021/03/01 08:19:41;;;;;;;19.23;8.57;;;;;;;;;;5002060;28;20555;-87
2021/03/01 08:23:04;;;;;;;11.23;7.83;;;;;;;;;;4983474;28;20541;-87
2021/03/01 08:26:08;;;;;;;12.50;8.30;;;;;;;;;;4982980;28;20556;-88
2021/03/01 08:29:16;;;;;;;13.63;8.60;;;;;;;;;;5005580;28;20181;-88
2021/03/01 08:32:20;;;;;;;13.93;8.63;;;;;;;;;;5012176;28;20575;-88
2021/03/01 08:35:24;;;;;;;16.30;9.23;;;;;;;;;;4994448;28;20213;-88
2021/03/01 08:38:45;;;;;;;10.60;7.77;;;;;;;;;;5005802;28;20181;-89
2021/03/01 08:41:49;;;;;;;10.67;7.50;;;;;;;;;;4983295;28;20182;-89
2021/03/01 08:44:54;;;;;;;14.93;8.03;;;;;;;;;;4983295;28;20221;-89
2021/03/01 08:48:00;;;;;;;11.43;7.80;;;;;;;;;;4983983;28;20194;-89
2021/03/01 08:51:04;;;;;;;12.70;8.30;;;;;;;;;;5013338;28;20231;-88
2021/03/01 08:54:09;;;;;;;11.90;8.50;;;;;;;;;;5001927;28;20228;-89
2021/03/01 08:57:13;;;;;;;12.20;8.30;;;;;;;;;;5002450;28;20201;-88
2021/03/01 09:00:18;;;;;;;12.37;8.43;;;;;;;;;;5002412;28;20180;-89
2021/03/01 09:03:35;;;;;;;13.87;8.40;;;;;;;;;;5012142;28;20213;-89
2021/03/01 09:06:39;;;;;;;17.87;8.70;;;;;;;;;;5005242;28;20170;-88
2021/03/01 09:09:48;;;;;;;12.30;8.60;;;;;;;;;;4993939;28;20190;-89
2021/03/01 09:12:53;;;;;;;11.73;7.90;;;;;;;;;;4982293;28;20186;-89
2021/03/01 09:16:06;;;;;;;21.50;8.70;;;;;;;;;;5006826;28;20212;-88
2021/03/01 09:19:14;;;;;;;12.67;8.57;;;;;;;;;;5014016;28;20181;-88
2021/03/01 09:22:19;;;;;;;10.83;7.70;;;;;;;;;;5002007;28;20185;-88
2021/03/01 09:25:31;;;;;;;11.27;7.93;;;;;;;;;;4992258;28;20544;-89
2021/03/01 09:28:36;;;;;;;10.47;7.87;;;;;;;;;;5001681;28;20196;-88
2021/03/01 09:31:43;;;;;;;12.63;7.70;;;;;;;;;;5001981;28;20185;-88
2021/03/01 09:34:47;;;;;;;15.93;7.60;;;;;;;;;;5001889;28;20220;-88
2021/03/01 09:37:51;;;;;;;11.63;7.30;;;;;;;;;;5004961;28;20201;-88
2021/03/01 09:40:57;;;;;;;11.17;7.70;;;;;;;;;;5012725;28;20655;-89
2021/03/01 09:44:03;;;;;;;13.20;8.10;;;;;;;;;;4992963;28;20217;-88
2021/03/01 09:47:08;;;;;;;10.47;7.53;;;;;;;;;;4989987;28;20227;-88
2021/03/01 09:50:13;;;;;;;12.40;7.70;;;;;;;;;;5001374;28;20193;-88
2021/03/01 09:53:18;;;;;;;11.13;8.23;;;;;;;;;;5012283;28;20224;-89
2021/03/01 09:56:40;;;;;;;10.33;7.80;;;;;;;;;;5001255;28;20561;-88
2021/03/01 09:59:44;;;;;;;11.17;8.13;;;;;;;;;;5035279;28;20181;-88
2021/03/01 10:02:59;;;;;;;10.97;8.00;;;;;;;;;;5001005;28;20181;-88
2021/03/01 10:06:04;;;;;;;12.47;8.00;;;;;;;;;;5023842;28;20612;-87
2021/03/01 10:09:10;;;;;;;12.20;7.63;;;;;;;;;;5001381;28;20197;-86
2021/03/01 10:12:15;;;;;;;11.37;7.20;;;;;;;;;;5012787;28;20201;-88
2021/03/01 10:15:21;;;;;;;9.07;6.30;;;;;;;;;;5013624;28;20217;-87
2021/03/01 10:18:29;;;;;;;8.13;5.67;;;;;;;;;;5014928;28;20185;-86
2021/03/01 10:21:34;;;;;;;17.13;7.13;;;;;;;;;;5002226;28;20181;-88
2021/03/01 10:24:42;;;;;;;10.40;7.33;;;;;;;;;;5023076;28;20220;-87
2021/03/01 10:27:46;;;;;;;12.03;7.33;;;;;;;;;;5001583;28;20196;-87
2021/03/01 10:31:05;;;;;;;10.27;6.27;;;;;;;;;;5002063;28;20173;-87
2021/03/01 10:34:15;;;;;;;8.30;6.30;;;;;;;;;;5012600;28;20225;-88
2021/03/01 10:37:26;;;;;;;7.97;6.17;;;;;;;;;;5001293;28;20173;-88
2021/03/01 10:40:30;;;;;;;10.33;6.53;;;;;;;;;;5011701;28;20181;-88
2021/03/01 10:43:34;;;;;;;8.47;6.23;;;;;;;;;;5000215;28;20224;-88
2021/03/01 10:46:47;;;;;;;8.87;6.37;;;;;;;;;;5000229;28;20168;-88
2021/03/01 10:49:54;;;;;;;14.10;6.30;;;;;;;;;;4980688;28;20550;-87
2021/03/01 10:52:59;;;;;;;11.87;6.23;;;;;;;;;;4980647;28;20720;-87
2021/03/01 10:56:03;;;;;;;9.00;5.83;;;;;;;;;;4980872;28;20221;-86
2021/03/01 10:59:08;;;;;;;15.47;6.40;;;;;;;;;;4991617;28;20538;-87
2021/03/01 11:02:12;;;;;;;7.67;5.57;;;;;;;;;;4954034;28;359418;-87
2021/03/01 11:05:18;;;;;;;7.63;5.30;;;;;;;;;;4980620;28;20201;-83
2021/03/01 11:08:22;;;;;;;8.87;5.67;;;;;;;;;;4994898;28;20518;-83
2021/03/01 11:11:26;;;;;;;7.20;5.30;;;;;;;;;;5001665;28;20217;-82
2021/03/01 11:14:30;;;;;;;7.97;5.20;;;;;;;;;;5012426;28;20695;-82
2021/03/01 11:17:35;;;;;;;9.87;5.13;;;;;;;;;;4992797;28;20211;-82
2021/03/01 11:20:39;;;;;;;16.17;5.93;;;;;;;;;;5009991;28;20549;-82
2021/03/01 11:23:43;;;;;;;8.03;5.40;;;;;;;;;;5000282;28;20229;-82
2021/03/01 11:26:49;;;;;;;10.13;5.93;;;;;;;;;;4995527;28;20201;-82
2021/03/01 11:29:53;;;;;;;8.40;4.93;;;;;;;;;;4989766;28;20537;-82
2021/03/01 11:32:57;;;;;;;11.20;5.77;;;;;;;;;;4984793;28;20707;-83
2021/03/01 11:36:03;;;;;;;6.47;4.70;;;;;;;;;;4996065;28;20213;-83
2021/03/01 11:39:09;;;;;;;9.77;5.23;;;;;;;;;;5001949;28;20209;-82
2021/03/01 11:42:14;;;;;;;7.40;5.03;;;;;;;;;;5002433;28;20668;-82
2021/03/01 11:45:18;;;;;;;7.77;5.07;;;;;;;;;;4980833;28;20178;-82
2021/03/01 11:48:22;;;;;;;10.20;5.17;;;;;;;;;;5004486;28;20188;-81
2021/03/01 11:51:27;;;;;;;8.17;5.27;;;;;;;;;;5010279;28;20185;-81
2021/03/01 11:54:39;;;;;;;9.03;5.63;;;;;;;;;;5000764;28;20596;-86
2021/03/01 11:57:44;;;;;;;8.97;5.10;;;;;;;;;;4980562;28;20181;-86
2021/03/01 12:00:48;;;;;;;7.03;4.70;;;;;;;;;;4998151;28;20180;-86
2021/03/01 12:03:52;;;;;;;7.03;5.30;;;;;;;;;;4979473;28;20225;-86
2021/03/01 12:06:57;;;;;;;7.97;4.90;;;;;;;;;;4991107;28;20193;-86
2021/03/01 12:10:03;;;;;;;6.87;4.90;;;;;;;;;;4997942;28;20185;-86
2021/03/01 12:13:07;;;;;;;6.40;5.23;;;;;;;;;;5016910;28;20217;-87
2021/03/01 12:16:11;;;;;;;6.87;4.50;;;;;;;;;;4990346;28;20573;-87
2021/03/01 12:19:15;;;;;;;8.50;5.10;;;;;;;;;;5002038;28;20185;-86
2021/03/01 12:22:20;;;;;;;7.17;4.60;;;;;;;;;;4999059;28;20185;-87
2021/03/01 12:25:24;;;;;;;5.90;4.23;;;;;;;;;;4997377;28;20193;-86
2021/03/01 12:28:28;;;;;;;12.63;5.37;;;;;;;;;;4999340;28;20185;-87
2021/03/01 12:31:32;;;;;;;8.43;4.73;;;;;;;;;;5021649;28;20181;-87
2021/03/01 12:34:41;;;;;;;8.83;4.97;;;;;;;;;;5012226;28;20569;-87
2021/03/01 12:37:45;;;;;;;28.37;5.63;;;;;;;;;;5001506;28;20182;-88
2021/03/01 12:40:50;;;;;;;7.47;4.63;;;;;;;;;;4981025;28;20177;-86
2021/03/01 12:43:54;;;;;;;27.03;5.27;;;;;;;;;;4996055;28;20212;-86
2021/03/01 12:46:58;;;;;;;6.80;4.60;;;;;;;;;;5001872;28;20633;-86
2021/03/01 12:50:03;;;;;;;6.83;4.27;;;;;;;;;;4994568;28;20177;-87
2021/03/01 12:53:07;;;;;;;6.47;4.53;;;;;;;;;;4983127;28;20221;-87
2021/03/01 12:56:12;;;;;;;6.90;4.23;;;;;;;;;;4994009;28;20209;-87
2021/03/01 12:59:16;;;;;;;8.37;4.43;;;;;;;;;;4983441;28;20177;-86
2021/03/01 13:02:21;;;;;;;5.03;3.93;;;;;;;;;;5019313;28;20185;-85
2021/03/01 13:05:25;;;;;;;6.03;4.37;;;;;;;;;;4982699;28;20181;-85
2021/03/01 13:08:29;;;;;;;6.97;4.70;;;;;;;;;;4996752;28;20193;-85
2021/03/01 13:11:33;;;;;;;6.80;4.07;;;;;;;;;;4993792;28;20185;-86
2021/03/01 13:14:37;;;;;;;15.77;4.70;;;;;;;;;;5007775;28;20228;-87
2021/03/01 13:17:41;;;;;;;8.20;4.53;;;;;;;;;;5012475;28;20314;-86
2021/03/01 13:20:45;;;;;;;6.30;4.60;;;;;;;;;;5012998;28;20193;-86
2021/03/01 13:23:54;;;;;;;11.23;4.53;;;;;;;;;;5009477;28;20216;-86
2021/03/01 13:26:58;;;;;;;5.90;4.23;;;;;;;;;;5016176;28;20200;-86
2021/03/01 13:30:06;;;;;;;10.50;4.37;;;;;;;;;;5013323;28;20177;-86
2021/03/01 13:33:10;;;;;;;6.80;4.30;;;;;;;;;;5023372;28;20217;-86
2021/03/01 13:36:15;;;;;;;18.87;4.70;;;;;;;;;;5006026;28;20213;-86
2021/03/01 13:39:19;;;;;;;6.50;4.60;;;;;;;;;;4982033;28;20197;-86
2021/03/01 13:42:23;;;;;;;9.53;5.67;;;;;;;;;;5007870;28;20205;-86
2021/03/01 13:45:27;;;;;;;8.70;5.07;;;;;;;;;;5022431;28;20548;-86
2021/03/01 13:48:31;;;;;;;7.67;4.60;;;;;;;;;;4992935;28;20178;-86
2021/03/01 13:51:36;;;;;;;7.07;4.80;;;;;;;;;;4983940;28;20186;-87
2021/03/01 13:54:40;;;;;;;6.73;4.83;;;;;;;;;;5024713;28;20228;-87
2021/03/01 13:57:45;;;;;;;8.30;4.43;;;;;;;;;;5002218;28;20204;-87
2021/03/01 14:00:49;;;;;;;21.77;5.43;;;;;;;;;;4988945;28;20201;-87
2021/03/01 14:03:56;;;;;;;6.77;4.40;;;;;;;;;;5018542;28;20220;-86
2021/03/01 14:07:00;;;;;;;7.77;4.50;;;;;;;;;;5015703;28;20177;-85
2021/03/01 14:10:07;;;;;;;10.13;5.20;;;;;;;;;;5001269;28;20193;-86
2021/03/01 14:13:11;;;;;;;11.83;4.73;;;;;;;;;;4993785;28;20220;-86
2021/03/01 14:16:15;;;;;;;9.60;4.60;;;;;;;;;;5016494;28;20220;-86
2021/03/01 14:19:19;;;;;;;6.80;4.43;;;;;;;;;;4998519;28;20201;-86
2021/03/01 14:22:24;;;;;;;7.00;4.30;;;;;;;;;;5003829;28;20185;-86
2021/03/01 14:25:28;;;;;;;5.57;4.47;;;;;;;;;;5023247;28;20173;-85
2021/03/01 14:28:32;;;;;;;6.13;4.07;;;;;;;;;;5011684;28;20218;-86
2021/03/01 14:31:37;;;;;;;6.00;4.03;;;;;;;;;;5003182;28;20181;-87
2021/03/01 14:34:42;;;;;;;8.07;4.73;;;;;;;;;;5026812;28;20687;-87
2021/03/01 14:37:46;;;;;;;6.03;4.43;;;;;;;;;;5015476;28;20208;-87
2021/03/01 14:40:50;;;;;;;6.13;4.10;;;;;;;;;;5015578;28;20184;-86
2021/03/01 14:43:55;;;;;;;5.73;3.77;;;;;;;;;;5025748;28;20216;-86
2021/03/01 14:46:59;;;;;;;6.50;4.20;;;;;;;;;;5022973;28;20181;-86
2021/03/01 14:50:04;;;;;;;10.37;3.80;;;;;;;;;;4999815;28;20193;-86
2021/03/01 14:53:10;;;;;;;4.47;3.27;;;;;;;;;;5022039;28;20667;-86
2021/03/01 14:56:15;;;;;;;6.27;3.87;;;;;;;;;;5000255;28;20181;-86
2021/03/01 14:59:19;;;;;;;5.27;3.60;;;;;;;;;;4999980;28;20196;-86
2021/03/01 15:02:25;;;;;;;7.50;3.40;;;;;;;;;;5011439;28;20177;-86
2021/03/01 15:05:29;;;;;;;4.40;3.23;;;;;;;;;;5011052;28;20173;-86
2021/03/01 15:08:33;;;;;;;5.53;3.57;;;;;;;;;;4999869;28;20517;-86
2021/03/01 15:11:37;;;;;;;4.43;3.40;;;;;;;;;;5010703;28;20521;-86
2021/03/01 15:14:42;;;;;;;5.90;3.60;;;;;;;;;;5000341;28;20216;-88
2021/03/01 15:17:46;;;;;;;11.80;3.10;;;;;;;;;;4999914;28;20204;-87
2021/03/01 15:20:52;;;;;;;3.10;2.40;;;;;;;;;;5011217;28;20201;-87
2021/03/01 15:23:56;;;;;;;11.83;3.40;;;;;;;;;;5010754;28;20220;-87
2021/03/01 15:27:00;;;;;;;10.77;3.20;;;;;;;;;;5022285;28;20181;-87
2021/03/01 15:30:05;;;;;;;4.83;2.80;;;;;;;;;;5011377;28;20177;-87
2021/03/01 15:33:10;;;;;;;8.63;2.97;;;;;;;;;;4999785;28;20213;-87
2021/03/01 15:36:16;;;;;;;4.73;3.30;;;;;;;;;;5000158;28;20177;-86
2021/03/01 15:39:21;;;;;;;16.27;4.13;;;;;;;;;;5010938;28;20185;-87
2021/03/01 15:42:25;;;;;;;7.23;2.97;;;;;;;;;;5010836;28;20181;-86
2021/03/01 15:45:30;;;;;;;5.93;3.50;;;;;;;;;;5010547;28;20628;-87
2021/03/01 15:48:34;;;;;;;5.33;4.17;;;;;;;;;;4993181;28;20185;-87
2021/03/01 15:51:38;;;;;;;5.30;3.00;;;;;;;;;;4994037;28;20181;-87
2021/03/01 15:54:43;;;;;;;4.37;3.10;;;;;;;;;;4996999;28;20228;-87
2021/03/01 15:57:50;;;;;;;5.10;3.30;;;;;;;;;;5002362;28;20210;-87
2021/03/01 16:00:54;;;;;;;6.37;3.97;;;;;;;;;;5004411;28;20193;-86
2021/03/01 16:03:58;;;;;;;6.73;4.27;;;;;;;;;;5021654;28;20220;-87
2021/03/01 16:07:02;;;;;;;11.70;4.27;;;;;;;;;;4984426;28;20189;-88
2021/03/01 16:10:08;;;;;;;14.97;3.87;;;;;;;;;;4990782;28;20637;-86
2021/03/01 16:13:12;;;;;;;7.20;4.03;;;;;;;;;;4993467;28;20220;-86
2021/03/01 16:16:16;;;;;;;10.93;4.90;;;;;;;;;;4998764;28;20205;-86
2021/03/01 16:19:20;;;;;;;8.70;4.70;;;;;;;;;;4998579;28;20557;-86
2021/03/01 16:22:25;;;;;;;5.93;3.50;;;;;;;;;;4996588;28;20192;-86
2021/03/01 16:25:29;;;;;;;17.73;5.00;;;;;;;;;;5022168;28;20673;-85
2021/03/01 16:28:33;;;;;;;33.80;5.73;;;;;;;;;;4995477;28;20649;-86
2021/03/01 16:31:37;;;;;;;15.87;6.27;;;;;;;;;;5004595;28;20188;-86
2021/03/01 16:34:42;;;;;;;10.57;6.03;;;;;;;;;;4984500;28;20229;-87
2021/03/01 16:37:46;;;;;;;12.30;5.57;;;;;;;;;;4990095;28;20217;-86
2021/03/01 16:40:50;;;;;;;16.13;7.53;;;;;;;;;;5013896;28;20180;-87
2021/03/01 16:43:56;;;;;;;9.47;4.87;;;;;;;;;;4994485;28;20225;-86
2021/03/01 16:47:01;;;;;;;9.17;4.63;;;;;;;;;;5007886;28;20198;-86
2021/03/01 16:50:05;;;;;;;9.50;5.03;;;;;;;;;;4997450;28;20189;-85
2021/03/01 16:53:11;;;;;;;7.63;4.43;;;;;;;;;;4994976;28;20217;-85
2021/03/01 16:56:18;;;;;;;6.57;3.93;;;;;;;;;;4994999;28;20185;-88
2021/03/01 16:59:24;;;;;;;5.73;3.80;;;;;;;;;;5020668;28;20185;-88
2021/03/01 17:02:29;;;;;;;14.80;5.00;;;;;;;;;;5011378;28;20193;-89
2021/03/01 17:05:33;;;;;;;6.57;4.20;;;;;;;;;;5002138;28;20177;-88
2021/03/01 17:08:38;;;;;;;8.07;4.43;;;;;;;;;;5000003;28;20193;-89
2021/03/01 17:11:44;;;;;;;8.77;5.37;;;;;;;;;;4982976;28;20549;-89
2021/03/01 17:14:56;;;;;;;8.10;4.13;;;;;;;;;;4983001;28;20221;-89
2021/03/01 17:18:01;;;;;;;6.10;4.23;;;;;;;;;;4993891;28;20205;-89
2021/03/01 17:21:10;;;;;;;5.97;3.53;;;;;;;;;;4983277;28;20525;-89
2021/03/01 17:24:31;;;;;;;11.63;4.47;;;;;;;;;;4993828;28;20589;-90
2021/03/01 17:27:35;;;;;;;6.30;4.10;;;;;;;;;;4982906;28;20190;-90
2021/03/01 17:30:42;;;;;;;8.90;4.13;;;;;;;;;;4986958;28;20186;-89
2021/03/01 17:33:48;;;;;;;17.13;4.33;;;;;;;;;;4989110;28;20580;-88
2021/03/01 17:36:53;;;;;;;10.47;3.93;;;;;;;;;;5004740;28;20182;-90
2021/03/01 17:39:57;;;;;;;6.70;3.80;;;;;;;;;;4993549;28;20178;-89
2021/03/01 17:43:01;;;;;;;6.60;3.77;;;;;;;;;;5016267;28;20217;-89
2021/03/01 17:46:14;;;;;;;7.57;3.77;;;;;;;;;;4988070;28;20192;-89
2021/03/01 17:49:30;;;;;;;5.23;3.87;;;;;;;;;;5002290;28;20181;-87
2021/03/01 17:52:48;;;;;;;8.57;3.40;;;;;;;;;;5000528;28;20193;-88
2021/03/01 17:56:08;;;;;;;6.97;3.43;;;;;;;;;;5004910;28;20186;-88
2021/03/01 17:59:22;;;;;;;14.07;3.60;;;;;;;;;;4988676;28;20217;-89
2021/03/01 18:02:33;;;;;;;10.17;3.87;;;;;;;;;;5000514;28;20201;-89
2021/03/01 18:05:39;;;;;;;5.40;3.47;;;;;;;;;;4999117;28;20193;-89
2021/03/01 18:08:50;;;;;;;8.60;3.50;;;;;;;;;;5011543;28;20188;-90
2021/03/01 18:11:54;;;;;;;7.93;3.73;;;;;;;;;;4986143;28;20547;-89
2021/03/01 18:14:58;;;;;;;7.40;3.70;;;;;;;;;;4991952;28;20217;-88
2021/03/01 18:18:03;;;;;;;5.67;3.73;;;;;;;;;;4993214;28;20208;-88
2021/03/01 18:21:07;;;;;;;8.27;4.37;;;;;;;;;;5012727;28;20512;-90
2021/03/01 18:24:12;;;;;;;5.30;3.67;;;;;;;;;;5008024;28;20208;-89